Terminal Aerodrome Forecast
Issued by NWS Melbourne, FL

Home | Current Version | Previous Version | Text Only | Print | Product List | Glossary On
Versions: 1 2 3 4 5 6 7 8 9 10 11 12 13 14 15 16 17 18 19 20 21
853
FTUS42 KMLB 251732
TAFDAB
TAF
KDAB 251732Z 2518/2618 11010G20KT P6SM FEW040 SCT060 BKN250
     FM260000 09007KT P6SM BKN050
     FM260800 10002KT P6SM SCT060
     FM261500 13006KT P6SM FEW060=

USA.gov is the U.S. government's official web portal to all federal, state and local government web resources and services.